createdAt,value
2022-08-12T00:00:29.079Z,56.31
2022-08-12T00:03:52.350Z,58.18
2022-08-12T00:07:13.566Z,57.34
2022-08-12T00:10:34.110Z,57.26
2022-08-12T00:13:54.691Z,56.95
2022-08-12T00:17:16.286Z,56.75
2022-08-12T00:20:38.287Z,55.78
2022-08-12T00:24:01.117Z,54.70
2022-08-12T00:27:25.113Z,53.43
2022-08-12T00:30:47.764Z,52.55
2022-08-12T00:34:08.516Z,51.87
2022-08-12T00:37:31.888Z,51.46
2022-08-12T00:40:52.659Z,51.23
2022-08-12T00:43:57.717Z,51.13
2022-08-12T00:47:02.680Z,51.23
2022-08-12T00:50:06.796Z,50.87
2022-08-12T00:53:11.391Z,50.35
2022-08-12T00:56:15.027Z,50.06
2022-08-12T00:59:17.985Z,50.02
2022-08-12T01:02:26.410Z,49.65
2022-08-12T01:05:48.548Z,49.41
2022-08-12T01:09:11.811Z,49.27
2022-08-12T01:12:15.072Z,49.33
2022-08-12T01:15:19.316Z,49.40
2022-08-12T01:18:23.670Z,49.70
2022-08-12T01:21:46.942Z,49.15
2022-08-12T01:25:07.290Z,49.62
2022-08-12T01:28:13.751Z,49.62
2022-08-12T01:31:18.522Z,49.70
2022-08-12T01:34:36.374Z,49.69
2022-08-12T01:37:48.359Z,49.75
2022-08-12T01:40:54.194Z,49.88
2022-08-12T01:44:01.027Z,49.77
2022-08-12T01:47:12.158Z,49.97
2022-08-12T01:50:22.622Z,49.93
2022-08-12T01:53:27.229Z,50.28
2022-08-12T01:56:34.883Z,50.19
2022-08-12T01:59:50.828Z,50.49
2022-08-12T02:03:04.601Z,50.37
2022-08-12T02:06:32.122Z,50.54
2022-08-12T02:10:08.540Z,50.75
2022-08-12T02:13:41.852Z,50.52
2022-08-12T02:16:58.813Z,50.71
2022-08-12T02:20:14.150Z,51.01
2022-08-12T02:23:19.833Z,51.32
2022-08-12T02:26:26.027Z,51.67
2022-08-12T02:29:30.650Z,51.50
2022-08-12T02:32:40.374Z,51.77
2022-08-12T02:35:43.571Z,51.61
2022-08-12T02:38:47.265Z,51.97
2022-08-12T02:41:53.262Z,51.98
2022-08-12T02:44:59.375Z,52.30
2022-08-12T02:48:06.531Z,52.39
2022-08-12T02:51:12.880Z,52.16
2022-08-12T02:54:15.666Z,52.23
2022-08-12T02:57:21.035Z,52.66
2022-08-12T03:00:28.721Z,52.78
2022-08-12T03:03:33.477Z,52.67
2022-08-12T03:06:52.876Z,52.73
2022-08-12T03:10:05.252Z,52.93
2022-08-12T03:13:10.960Z,53.19
2022-08-12T03:16:15.175Z,52.98
2022-08-12T03:19:21.473Z,53.04
2022-08-12T03:22:24.701Z,53.27
2022-08-12T03:25:27.947Z,53.61
2022-08-12T03:28:51.567Z,53.80
2022-08-12T03:32:01.116Z,53.77
2022-08-12T03:35:07.265Z,54.22
2022-08-12T03:38:16.437Z,54.43
2022-08-12T03:41:35.430Z,54.27
2022-08-12T03:44:57.904Z,54.21
2022-08-12T03:48:24.743Z,54.70
2022-08-12T03:51:45.340Z,54.61
2022-08-12T03:55:05.814Z,55.10
2022-08-12T03:58:26.443Z,54.98
2022-08-12T04:01:29.372Z,55.40
2022-08-12T04:04:34.728Z,55.21
2022-08-12T04:07:38.468Z,55.52
2022-08-12T04:11:18.941Z,55.69
2022-08-12T04:14:21.625Z,55.86
2022-08-12T04:17:25.282Z,55.95
2022-08-12T04:20:29.383Z,55.87
2022-08-12T04:23:33.780Z,55.94
2022-08-12T04:26:37.020Z,55.99
2022-08-12T04:30:30.212Z,56.42
2022-08-12T04:33:03.915Z,56.14
2022-08-12T04:36:08.980Z,56.15
2022-08-12T04:39:12.948Z,56.44
2022-08-12T04:42:16.104Z,56.58
2022-08-12T04:45:19.262Z,56.62
2022-08-12T04:48:25.443Z,56.75
2022-08-12T04:51:30.984Z,56.64
2022-08-12T04:54:34.595Z,56.74
2022-08-12T04:57:38.466Z,56.51
2022-08-12T05:00:41.208Z,56.59
2022-08-12T05:03:46.074Z,56.88
2022-08-12T05:06:50.958Z,56.98
2022-08-12T05:09:59.970Z,57.25
2022-08-12T05:13:06.518Z,57.12
2022-08-12T05:16:10.018Z,56.93
2022-08-12T05:19:22.385Z,57.02
2022-08-12T05:22:27.221Z,57.12
2022-08-12T05:25:29.918Z,57.11
2022-08-12T05:28:33.763Z,56.63
2022-08-12T05:31:47.713Z,56.83
2022-08-12T05:34:51.928Z,56.40
2022-08-12T05:38:10.404Z,56.38
2022-08-12T05:41:20.603Z,56.00
2022-08-12T05:44:23.773Z,56.17
2022-08-12T05:47:38.516Z,55.44
2022-08-12T05:50:52.604Z,55.21
2022-08-12T05:53:58.590Z,54.12
2022-08-12T05:57:02.195Z,50.22
2022-08-12T06:00:05.934Z,47.02
2022-08-12T06:03:08.933Z,44.79
2022-08-12T06:06:12.266Z,43.17
2022-08-12T06:09:16.357Z,42.11
2022-08-12T06:12:23.712Z,41.18
2022-08-12T06:15:26.966Z,40.46
2022-08-12T06:18:31.178Z,39.65
2022-08-12T06:21:34.392Z,39.09
2022-08-12T06:24:38.468Z,38.64
2022-08-12T06:28:06.088Z,38.60
2022-08-12T06:31:25.768Z,38.37
2022-08-12T06:35:26.732Z,38.14
2022-08-12T06:37:57.053Z,38.19
2022-08-12T06:41:19.925Z,38.22
2022-08-12T06:44:22.957Z,38.17
2022-08-12T06:47:25.766Z,38.11
2022-08-12T06:50:29.211Z,38.03
2022-08-12T06:53:33.919Z,37.89
2022-08-12T06:57:02.895Z,37.36
2022-08-12T07:00:01.685Z,36.97
2022-08-12T07:03:16.276Z,36.80
2022-08-12T07:06:25.703Z,36.32
2022-08-12T07:10:01.132Z,35.96
2022-08-12T07:12:55.391Z,35.77
2022-08-12T07:15:58.961Z,35.37
2022-08-12T07:19:04.201Z,34.86
2022-08-12T07:22:08.058Z,34.90
2022-08-12T07:25:29.137Z,34.77
2022-08-12T07:28:35.520Z,35.20
2022-08-12T07:31:42.760Z,35.01
2022-08-12T07:34:47.893Z,35.24
2022-08-12T07:37:53.201Z,35.33
2022-08-12T07:40:59.771Z,35.01
2022-08-12T07:44:06.576Z,34.60
2022-08-12T07:47:09.340Z,34.62
2022-08-12T07:50:23.436Z,34.88
2022-08-12T07:53:26.612Z,34.74
2022-08-12T07:56:31.173Z,35.47
2022-08-12T07:59:35.850Z,35.42
2022-08-12T08:02:38.829Z,35.57
2022-08-12T08:05:46.545Z,35.91
2022-08-12T08:08:49.754Z,36.04
2022-08-12T08:12:18.747Z,36.24
2022-08-12T08:15:51.142Z,36.28
2022-08-12T08:18:50.627Z,36.14
2022-08-12T08:21:55.179Z,36.75
2022-08-12T08:24:58.714Z,37.12
2022-08-12T08:28:03.753Z,37.31
2022-08-12T08:31:07.878Z,37.57
2022-08-12T08:34:27.458Z,37.81
2022-08-12T08:37:37.089Z,37.72
2022-08-12T08:41:01.568Z,37.56
2022-08-12T08:44:05.321Z,37.47
2022-08-12T08:47:11.200Z,37.31
2022-08-12T08:50:16.238Z,37.44
2022-08-12T08:53:19.850Z,37.22
2022-08-12T08:56:22.797Z,37.33
2022-08-12T08:59:25.543Z,36.58
2022-08-12T09:02:29.671Z,36.27
2022-08-12T09:06:01.828Z,36.31
2022-08-12T09:08:55.805Z,36.11
2022-08-12T09:12:16.552Z,36.11
2022-08-12T09:15:35.797Z,34.36
2022-08-12T09:18:41.316Z,33.47
2022-08-12T09:21:54.767Z,32.83
2022-08-12T09:25:00.063Z,32.59
2022-08-12T09:28:10.729Z,32.32
2022-08-12T09:32:03.969Z,30.89
2022-08-12T09:34:42.473Z,30.03
2022-08-12T09:37:58.119Z,29.93
2022-08-12T09:42:33.339Z,30.61
2022-08-12T09:44:42.644Z,30.58
2022-08-12T09:47:59.546Z,30.22
2022-08-12T09:51:11.015Z,30.57
2022-08-12T09:54:34.250Z,30.44
2022-08-12T09:58:45.199Z,30.23
2022-08-12T10:01:06.230Z,29.55
2022-08-12T10:04:19.887Z,29.42
2022-08-12T10:07:28.706Z,29.08
2022-08-12T10:10:58.995Z,28.76
2022-08-12T10:14:06.914Z,28.15
2022-08-12T10:17:17.367Z,28.44
2022-08-12T10:20:23.387Z,27.92
2022-08-12T10:23:39.410Z,28.27
2022-08-12T10:27:05.918Z,28.01
2022-08-12T10:30:39.492Z,27.99
2022-08-12T10:33:55.763Z,28.01
2022-08-12T10:37:21.020Z,28.23
2022-08-12T10:40:32.039Z,27.58
2022-08-12T10:43:55.299Z,27.52
2022-08-12T10:46:59.977Z,27.51
2022-08-12T10:50:28.662Z,27.39
2022-08-12T10:53:44.386Z,27.73
2022-08-12T10:56:54.135Z,27.73
2022-08-12T11:00:34.753Z,27.25
2022-08-12T11:04:22.340Z,26.94
2022-08-12T11:07:07.717Z,27.07
2022-08-12T11:10:13.913Z,26.93
2022-08-12T11:13:19.427Z,27.23
2022-08-12T11:16:42.268Z,26.82
2022-08-12T11:20:05.990Z,27.01
2022-08-12T11:23:25.787Z,25.67
2022-08-12T11:26:31.879Z,25.51
2022-08-12T11:30:05.747Z,25.51
2022-08-12T11:33:00.109Z,25.77
2022-08-12T11:36:14.654Z,25.64
2022-08-12T11:39:17.661Z,25.84
2022-08-12T11:42:46.983Z,25.72
2022-08-12T11:45:53.223Z,25.66
2022-08-12T11:48:59.321Z,25.67
2022-08-12T11:52:02.775Z,24.99
2022-08-12T11:55:06.312Z,24.79
2022-08-12T11:59:28.634Z,24.41
2022-08-12T12:02:02.015Z,24.58
2022-08-12T12:04:56.555Z,24.69
2022-08-12T12:08:40.979Z,24.16
2022-08-12T12:11:23.577Z,24.42
2022-08-12T12:14:38.058Z,24.29
2022-08-12T12:17:43.838Z,24.45
2022-08-12T12:20:47.083Z,24.34
2022-08-12T12:23:50.686Z,24.08
2022-08-12T12:27:00.527Z,23.99
2022-08-12T12:30:19.805Z,23.81
2022-08-12T12:33:57.448Z,23.61
2022-08-12T12:36:54.767Z,23.46
2022-08-12T12:39:58.647Z,22.93
2022-08-12T12:43:05.097Z,22.71
2022-08-12T12:46:08.788Z,22.84
2022-08-12T12:49:15.342Z,23.16
2022-08-12T12:52:21.311Z,22.77
2022-08-12T12:55:25.270Z,22.71
2022-08-12T12:58:35.453Z,22.74
2022-08-12T13:01:41.982Z,22.87
2022-08-12T13:04:47.809Z,23.49
2022-08-12T13:08:01.311Z,23.79
2022-08-12T13:11:06.565Z,23.47
2022-08-12T13:14:28.315Z,23.16
2022-08-12T13:18:02.068Z,22.95
2022-08-12T13:21:03.069Z,23.37
2022-08-12T13:24:09.968Z,23.31
2022-08-12T13:27:13.385Z,22.96
2022-08-12T13:30:20.299Z,23.05
2022-08-12T13:33:28.571Z,22.65
2022-08-12T13:36:33.385Z,22.34
2022-08-12T13:39:37.836Z,22.53
2022-08-12T13:42:40.872Z,22.78
2022-08-12T13:45:44.742Z,23.11
2022-08-12T13:48:48.276Z,23.41
2022-08-12T13:51:54.277Z,23.45
2022-08-12T13:54:57.506Z,23.70
2022-08-12T13:58:01.706Z,23.87
2022-08-12T14:01:06.480Z,23.24
2022-08-12T14:04:18.237Z,23.57
2022-08-12T14:07:29.527Z,23.06
2022-08-12T14:11:02.185Z,22.67
2022-08-12T14:14:12.899Z,22.46
2022-08-12T14:17:20.723Z,22.52
2022-08-12T14:20:26.661Z,22.12
2022-08-12T14:24:04.409Z,22.64
2022-08-12T14:26:56.758Z,22.74
2022-08-12T14:30:15.683Z,21.81
2022-08-12T14:33:19.766Z,22.09
2022-08-12T14:36:25.514Z,22.48
2022-08-12T14:39:29.849Z,22.52
2022-08-12T14:42:33.841Z,22.64
2022-08-12T14:45:47.033Z,22.53
2022-08-12T14:48:53.737Z,22.08
2022-08-12T14:52:55.728Z,22.22
2022-08-12T14:59:00.107Z,22.21
2022-08-12T15:02:04.033Z,22.69
2022-08-12T15:06:04.927Z,22.53
2022-08-12T15:08:38.661Z,22.24
2022-08-12T15:11:48.921Z,22.13
2022-08-12T15:15:00.858Z,22.29
2022-08-12T15:18:05.579Z,22.26
2022-08-12T15:21:11.776Z,21.98
2022-08-12T15:24:14.667Z,22.06
2022-08-12T15:27:22.198Z,22.20
2022-08-12T15:30:37.286Z,21.74
2022-08-12T15:33:46.328Z,22.16
2022-08-12T15:36:54.862Z,22.56
2022-08-12T15:40:01.128Z,22.27
2022-08-12T15:43:08.132Z,21.92
2022-08-12T15:46:15.762Z,22.07
2022-08-12T15:49:19.448Z,22.36
2022-08-12T15:52:27.619Z,22.48
2022-08-12T15:55:33.743Z,22.44
2022-08-12T15:58:41.236Z,22.42
2022-08-12T16:01:44.548Z,22.80
2022-08-12T16:04:51.491Z,22.56
2022-08-12T16:07:55.942Z,22.34
2022-08-12T16:10:58.704Z,22.60
2022-08-12T16:14:04.040Z,22.48
2022-08-12T16:17:08.874Z,22.39
2022-08-12T16:20:17.055Z,22.42
2022-08-12T16:23:35.961Z,22.11
2022-08-12T16:26:51.458Z,22.10
2022-08-12T16:29:59.251Z,21.93
2022-08-12T16:33:08.922Z,21.98
2022-08-12T16:36:13.589Z,21.00
2022-08-12T16:39:22.206Z,20.88
2022-08-12T16:42:28.399Z,20.68
2022-08-12T16:46:05.382Z,21.02
2022-08-12T16:48:59.616Z,21.19
2022-08-12T16:52:14.541Z,21.24
2022-08-12T16:55:19.560Z,21.80
2022-08-12T16:58:28.510Z,21.82
2022-08-12T17:01:37.576Z,21.82
2022-08-12T17:04:42.595Z,21.92
2022-08-12T17:07:56.250Z,21.76
2022-08-12T17:10:59.780Z,21.84
2022-08-12T17:14:02.892Z,21.55
2022-08-12T17:17:26.104Z,21.47
2022-08-12T17:20:38.749Z,21.90
2022-08-12T17:23:53.546Z,21.91
2022-08-12T17:26:58.522Z,22.16
2022-08-12T17:30:04.570Z,21.97
2022-08-12T17:33:17.150Z,22.07
2022-08-12T17:36:27.449Z,22.52
2022-08-12T17:40:06.513Z,22.47
2022-08-12T17:42:56.154Z,22.66
2022-08-12T17:46:01.987Z,23.03
2022-08-12T17:50:02.630Z,23.12
2022-08-12T17:52:33.217Z,23.41
2022-08-12T17:55:43.354Z,23.94
2022-08-12T17:58:58.161Z,24.24
2022-08-12T18:02:02.874Z,24.30
2022-08-12T18:05:10.599Z,24.83
2022-08-12T18:08:15.398Z,24.91
2022-08-12T18:12:03.747Z,24.64
2022-08-12T18:15:00.509Z,24.74
2022-08-12T18:18:04.634Z,24.96
2022-08-12T18:21:09.240Z,25.46
2022-08-12T18:24:22.074Z,25.75
2022-08-12T18:27:44.667Z,25.67
2022-08-12T18:30:52.496Z,25.62
2022-08-12T18:34:00.837Z,25.97
2022-08-12T18:37:29.429Z,25.96
2022-08-12T18:40:54.647Z,26.40
2022-08-12T18:44:03.003Z,26.98
2022-08-12T18:47:09.590Z,27.11
2022-08-12T18:50:16.289Z,27.32
2022-08-12T18:54:06.044Z,27.46
2022-08-12T18:56:46.565Z,27.79
2022-08-12T19:00:00.683Z,27.88
2022-08-12T19:03:06.235Z,28.19
2022-08-12T19:06:28.280Z,28.29
2022-08-12T19:09:39.010Z,28.89
2022-08-12T19:13:25.154Z,29.37
2022-08-12T19:16:37.337Z,29.65
2022-08-12T19:19:41.794Z,29.92
2022-08-12T19:23:02.195Z,30.31
2022-08-12T19:26:12.604Z,30.70
2022-08-12T19:29:18.541Z,31.02
2022-08-12T19:32:24.074Z,31.11
2022-08-12T19:36:07.769Z,31.54
2022-08-12T19:38:57.060Z,31.82
2022-08-12T19:42:02.582Z,31.89
2022-08-12T19:45:12.308Z,31.87
2022-08-12T19:48:18.397Z,32.69
2022-08-12T19:51:33.285Z,34.31
2022-08-12T19:54:36.878Z,34.56
2022-08-12T19:57:42.634Z,34.72
2022-08-12T20:01:05.200Z,35.09
2022-08-12T20:04:14.934Z,35.12
2022-08-12T20:07:23.013Z,34.98
2022-08-12T20:10:35.405Z,34.90
2022-08-12T20:13:42.870Z,34.81
2022-08-12T20:16:52.480Z,34.92
2022-08-12T20:20:19.206Z,35.17
2022-08-12T20:23:50.758Z,35.12
2022-08-12T20:26:48.315Z,35.42
2022-08-12T20:29:54.630Z,35.48
2022-08-12T20:33:00.588Z,35.48
2022-08-12T20:36:12.934Z,35.73
2022-08-12T20:39:53.425Z,36.26
2022-08-12T20:42:53.662Z,36.56
2022-08-12T20:45:58.391Z,36.95
2022-08-12T20:49:14.842Z,37.02
2022-08-12T20:52:22.905Z,37.61
2022-08-12T20:55:42.370Z,37.83
2022-08-12T20:58:49.861Z,37.79
2022-08-12T21:01:54.373Z,38.06
2022-08-12T21:05:21.883Z,38.05
2022-08-12T21:08:26.534Z,38.25
2022-08-12T21:11:30.413Z,38.44
2022-08-12T21:14:39.686Z,38.39
2022-08-12T21:18:11.642Z,38.28
2022-08-12T21:21:40.388Z,38.76
2022-08-12T21:24:50.714Z,38.89
2022-08-12T21:27:58.763Z,38.93
2022-08-12T21:32:36.135Z,39.09
2022-08-12T21:34:31.258Z,39.31
2022-08-12T21:37:37.103Z,39.48
2022-08-12T21:40:52.597Z,39.78
2022-08-12T21:44:00.858Z,39.99
2022-08-12T21:47:20.392Z,40.11
2022-08-12T21:50:29.467Z,40.36
2022-08-12T21:54:07.022Z,41.07
2022-08-12T21:56:56.163Z,41.33
2022-08-12T21:59:59.156Z,41.99
2022-08-12T22:04:01.814Z,41.86
2022-08-12T22:06:53.476Z,41.93
2022-08-12T22:09:57.315Z,42.02
2022-08-12T22:13:01.160Z,42.77
2022-08-12T22:16:05.053Z,42.71
2022-08-12T22:19:07.808Z,42.82
2022-08-12T22:22:12.462Z,42.94
2022-08-12T22:25:16.730Z,43.07
2022-08-12T22:28:40.550Z,42.90
2022-08-12T22:31:43.610Z,43.09
2022-08-12T22:34:47.099Z,43.17
2022-08-12T22:37:53.560Z,43.58
2022-08-12T22:41:01.720Z,43.71
2022-08-12T22:44:23.374Z,43.85
2022-08-12T22:47:55.171Z,44.08
2022-08-12T22:50:59.705Z,44.55
2022-08-12T22:54:03.876Z,45.21
2022-08-12T22:57:11.990Z,45.42
2022-08-12T23:00:23.600Z,45.72
2022-08-12T23:03:48.456Z,45.71
2022-08-12T23:06:55.619Z,45.55
2022-08-12T23:09:59.656Z,45.50
2022-08-12T23:13:21.693Z,45.89
2022-08-12T23:16:31.847Z,45.69
2022-08-12T23:19:38.469Z,45.73
2022-08-12T23:23:02.905Z,45.88
2022-08-12T23:26:10.358Z,45.95
2022-08-12T23:29:29.461Z,46.04
2022-08-12T23:32:35.219Z,46.26
2022-08-12T23:35:53.917Z,46.19
2022-08-12T23:39:03.743Z,46.20
2022-08-12T23:42:17.700Z,46.54
2022-08-12T23:45:31.295Z,46.66
2022-08-12T23:48:35.214Z,46.92
2022-08-12T23:51:39.119Z,46.95
2022-08-12T23:54:45.877Z,47.07
2022-08-12T23:58:20.653Z,47.28
